sensor_id;sensor_type;location;lat;lon;timestamp;P1;durP1;ratioP1;P2;durP2;ratioP2
60352;SDS011;46196;52.970;6.954;2023-10-09T00:01:45;5.85;;;3.42;;
60352;SDS011;46196;52.970;6.954;2023-10-09T00:04:11;6.03;;;3.45;;
60352;SDS011;46196;52.970;6.954;2023-10-09T00:06:39;5.68;;;3.47;;
60352;SDS011;46196;52.970;6.954;2023-10-09T00:09:07;6.97;;;3.10;;
60352;SDS011;46196;52.970;6.954;2023-10-09T00:11:49;8.25;;;3.65;;
60352;SDS011;46196;52.970;6.954;2023-10-09T00:14:21;8.30;;;3.67;;
60352;SDS011;46196;52.970;6.954;2023-10-09T00:16:47;6.13;;;3.25;;
60352;SDS011;46196;52.970;6.954;2023-10-09T00:19:14;8.00;;;3.65;;
60352;SDS011;46196;52.970;6.954;2023-10-09T00:21:55;6.97;;;3.60;;
60352;SDS011;46196;52.970;6.954;2023-10-09T00:24:23;8.75;;;3.83;;
60352;SDS011;46196;52.970;6.954;2023-10-09T00:26:50;8.80;;;3.67;;
60352;SDS011;46196;52.970;6.954;2023-10-09T00:29:16;7.20;;;3.80;;
60352;SDS011;46196;52.970;6.954;2023-10-09T00:31:52;9.73;;;4.18;;
60352;SDS011;46196;52.970;6.954;2023-10-09T00:37:07;8.82;;;4.30;;
60352;SDS011;46196;52.970;6.954;2023-10-09T00:42:23;9.85;;;4.80;;
60352;SDS011;46196;52.970;6.954;2023-10-09T00:44:58;12.77;;;4.88;;
60352;SDS011;46196;52.970;6.954;2023-10-09T00:47:32;9.30;;;4.90;;
60352;SDS011;46196;52.970;6.954;2023-10-09T00:50:00;11.40;;;5.03;;
60352;SDS011;46196;52.970;6.954;2023-10-09T00:52:33;9.05;;;4.97;;
60352;SDS011;46196;52.970;6.954;2023-10-09T00:55:15;10.15;;;4.82;;
60352;SDS011;46196;52.970;6.954;2023-10-09T00:57:46;11.60;;;5.50;;
60352;SDS011;46196;52.970;6.954;2023-10-09T01:00:21;8.80;;;5.47;;
60352;SDS011;46196;52.970;6.954;2023-10-09T01:03:00;14.63;;;5.75;;
60352;SDS011;46196;52.970;6.954;2023-10-09T01:05:41;10.15;;;5.45;;
60352;SDS011;46196;52.970;6.954;2023-10-09T01:08:21;13.48;;;6.53;;
60352;SDS011;46196;52.970;6.954;2023-10-09T01:11:12;12.60;;;5.78;;
60352;SDS011;46196;52.970;6.954;2023-10-09T01:13:47;17.13;;;6.38;;
60352;SDS011;46196;52.970;6.954;2023-10-09T01:16:13;12.25;;;6.18;;
60352;SDS011;46196;52.970;6.954;2023-10-09T01:21:09;13.75;;;6.40;;
60352;SDS011;46196;52.970;6.954;2023-10-09T01:23:43;18.20;;;7.95;;
60352;SDS011;46196;52.970;6.954;2023-10-09T01:26:30;14.40;;;6.80;;
60352;SDS011;46196;52.970;6.954;2023-10-09T01:28:58;17.52;;;6.95;;
60352;SDS011;46196;52.970;6.954;2023-10-09T01:31:25;17.00;;;7.72;;
60352;SDS011;46196;52.970;6.954;2023-10-09T01:34:02;14.88;;;6.90;;
60352;SDS011;46196;52.970;6.954;2023-10-09T01:36:35;12.68;;;6.55;;
60352;SDS011;46196;52.970;6.954;2023-10-09T01:39:04;13.80;;;6.70;;
60352;SDS011;46196;52.970;6.954;2023-10-09T01:41:35;17.17;;;7.90;;
60352;SDS011;46196;52.970;6.954;2023-10-09T01:44:11;16.52;;;7.60;;
60352;SDS011;46196;52.970;6.954;2023-10-09T01:46:38;14.75;;;6.80;;
60352;SDS011;46196;52.970;6.954;2023-10-09T01:49:04;16.02;;;7.13;;
60352;SDS011;46196;52.970;6.954;2023-10-09T01:51:41;16.30;;;7.95;;
60352;SDS011;46196;52.970;6.954;2023-10-09T01:54:07;17.20;;;8.15;;
60352;SDS011;46196;52.970;6.954;2023-10-09T01:56:34;13.55;;;7.13;;
60352;SDS011;46196;52.970;6.954;2023-10-09T01:59:04;18.83;;;7.82;;
60352;SDS011;46196;52.970;6.954;2023-10-09T02:01:34;15.52;;;8.23;;
60352;SDS011;46196;52.970;6.954;2023-10-09T02:04:06;19.50;;;8.02;;
60352;SDS011;46196;52.970;6.954;2023-10-09T02:06:38;16.17;;;8.80;;
60352;SDS011;46196;52.970;6.954;2023-10-09T02:09:05;18.27;;;7.97;;
60352;SDS011;46196;52.970;6.954;2023-10-09T02:11:32;18.15;;;8.55;;
60352;SDS011;46196;52.970;6.954;2023-10-09T02:14:04;16.42;;;8.50;;
60352;SDS011;46196;52.970;6.954;2023-10-09T02:16:47;17.45;;;8.32;;
60352;SDS011;46196;52.970;6.954;2023-10-09T02:19:32;15.27;;;9.05;;
60352;SDS011;46196;52.970;6.954;2023-10-09T02:22:05;19.70;;;8.32;;
60352;SDS011;46196;52.970;6.954;2023-10-09T02:24:39;17.67;;;8.07;;
60352;SDS011;46196;52.970;6.954;2023-10-09T02:27:14;16.27;;;8.52;;
60352;SDS011;46196;52.970;6.954;2023-10-09T02:29:59;21.08;;;9.48;;
60352;SDS011;46196;52.970;6.954;2023-10-09T02:32:33;18.42;;;9.15;;
60352;SDS011;46196;52.970;6.954;2023-10-09T02:35:03;17.70;;;8.85;;
60352;SDS011;46196;52.970;6.954;2023-10-09T02:37:35;20.45;;;8.75;;
60352;SDS011;46196;52.970;6.954;2023-10-09T02:40:03;19.92;;;10.63;;
60352;SDS011;46196;52.970;6.954;2023-10-09T02:42:33;21.40;;;9.30;;
60352;SDS011;46196;52.970;6.954;2023-10-09T02:45:00;18.27;;;8.77;;
60352;SDS011;46196;52.970;6.954;2023-10-09T02:47:28;19.77;;;9.88;;
60352;SDS011;46196;52.970;6.954;2023-10-09T02:49:56;21.83;;;10.05;;
60352;SDS011;46196;52.970;6.954;2023-10-09T02:52:31;21.45;;;9.88;;
60352;SDS011;46196;52.970;6.954;2023-10-09T02:55:05;23.27;;;10.68;;
60352;SDS011;46196;52.970;6.954;2023-10-09T02:57:39;18.50;;;10.88;;
60352;SDS011;46196;52.970;6.954;2023-10-09T03:00:07;19.13;;;10.18;;
60352;SDS011;46196;52.970;6.954;2023-10-09T03:02:54;27.20;;;11.77;;
60352;SDS011;46196;52.970;6.954;2023-10-09T03:05:23;19.23;;;10.63;;
60352;SDS011;46196;52.970;6.954;2023-10-09T03:07:52;23.35;;;11.80;;
60352;SDS011;46196;52.970;6.954;2023-10-09T03:12:46;24.52;;;11.85;;
60352;SDS011;46196;52.970;6.954;2023-10-09T03:15:17;24.00;;;11.25;;
60352;SDS011;46196;52.970;6.954;2023-10-09T03:17:44;26.52;;;12.15;;
60352;SDS011;46196;52.970;6.954;2023-10-09T03:20:11;25.55;;;12.55;;
60352;SDS011;46196;52.970;6.954;2023-10-09T03:22:39;23.58;;;11.90;;
60352;SDS011;46196;52.970;6.954;2023-10-09T03:25:05;27.17;;;10.55;;
60352;SDS011;46196;52.970;6.954;2023-10-09T03:27:36;25.70;;;12.77;;
60352;SDS011;46196;52.970;6.954;2023-10-09T03:30:02;28.65;;;14.65;;
60352;SDS011;46196;52.970;6.954;2023-10-09T03:32:30;24.55;;;12.63;;
60352;SDS011;46196;52.970;6.954;2023-10-09T03:34:56;25.35;;;12.18;;
60352;SDS011;46196;52.970;6.954;2023-10-09T03:37:24;31.40;;;13.60;;
60352;SDS011;46196;52.970;6.954;2023-10-09T03:40:00;28.25;;;14.25;;
60352;SDS011;46196;52.970;6.954;2023-10-09T03:42:26;27.17;;;13.93;;
60352;SDS011;46196;52.970;6.954;2023-10-09T03:44:53;29.13;;;13.23;;
60352;SDS011;46196;52.970;6.954;2023-10-09T03:47:22;28.17;;;12.32;;
60352;SDS011;46196;52.970;6.954;2023-10-09T03:49:49;25.70;;;13.02;;
60352;SDS011;46196;52.970;6.954;2023-10-09T03:52:19;29.83;;;13.75;;
60352;SDS011;46196;52.970;6.954;2023-10-09T03:57:14;32.35;;;14.45;;
60352;SDS011;46196;52.970;6.954;2023-10-09T03:59:46;33.50;;;15.25;;
60352;SDS011;46196;52.970;6.954;2023-10-09T04:02:13;33.70;;;14.32;;
60352;SDS011;46196;52.970;6.954;2023-10-09T04:04:39;29.17;;;15.48;;
60352;SDS011;46196;52.970;6.954;2023-10-09T04:07:06;32.55;;;15.00;;
60352;SDS011;46196;52.970;6.954;2023-10-09T04:09:32;32.17;;;15.88;;
60352;SDS011;46196;52.970;6.954;2023-10-09T04:12:04;30.27;;;14.82;;
60352;SDS011;46196;52.970;6.954;2023-10-09T04:14:37;33.17;;;15.05;;
60352;SDS011;46196;52.970;6.954;2023-10-09T04:17:13;35.83;;;15.57;;
60352;SDS011;46196;52.970;6.954;2023-10-09T04:19:48;37.85;;;16.13;;
60352;SDS011;46196;52.970;6.954;2023-10-09T04:22:34;41.17;;;16.08;;
60352;SDS011;46196;52.970;6.954;2023-10-09T04:25:05;35.00;;;17.08;;
60352;SDS011;46196;52.970;6.954;2023-10-09T04:27:43;32.65;;;15.75;;
60352;SDS011;46196;52.970;6.954;2023-10-09T04:30:12;37.28;;;16.80;;
60352;SDS011;46196;52.970;6.954;2023-10-09T04:32:41;36.83;;;16.33;;
60352;SDS011;46196;52.970;6.954;2023-10-09T04:35:10;33.13;;;17.35;;
60352;SDS011;46196;52.970;6.954;2023-10-09T04:37:48;36.83;;;16.48;;
60352;SDS011;46196;52.970;6.954;2023-10-09T04:40:25;33.03;;;16.63;;
60352;SDS011;46196;52.970;6.954;2023-10-09T04:43:14;40.13;;;18.00;;
60352;SDS011;46196;52.970;6.954;2023-10-09T04:45:49;38.35;;;17.38;;
60352;SDS011;46196;52.970;6.954;2023-10-09T04:48:38;31.67;;;16.48;;
60352;SDS011;46196;52.970;6.954;2023-10-09T04:51:04;38.80;;;17.27;;
60352;SDS011;46196;52.970;6.954;2023-10-09T04:53:56;35.45;;;17.20;;
60352;SDS011;46196;52.970;6.954;2023-10-09T04:56:57;31.83;;;16.48;;
60352;SDS011;46196;52.970;6.954;2023-10-09T04:59:23;36.17;;;17.60;;
60352;SDS011;46196;52.970;6.954;2023-10-09T05:01:53;34.70;;;18.88;;
60352;SDS011;46196;52.970;6.954;2023-10-09T05:04:25;41.35;;;16.98;;
60352;SDS011;46196;52.970;6.954;2023-10-09T05:07:02;32.40;;;17.48;;
60352;SDS011;46196;52.970;6.954;2023-10-09T05:09:48;35.75;;;17.45;;
60352;SDS011;46196;52.970;6.954;2023-10-09T05:12:33;33.70;;;16.75;;
60352;SDS011;46196;52.970;6.954;2023-10-09T05:14:58;38.70;;;17.27;;
60352;SDS011;46196;52.970;6.954;2023-10-09T05:17:33;36.60;;;15.60;;
60352;SDS011;46196;52.970;6.954;2023-10-09T05:20:01;38.00;;;17.88;;
60352;SDS011;46196;52.970;6.954;2023-10-09T05:22:46;31.70;;;16.17;;
60352;SDS011;46196;52.970;6.954;2023-10-09T05:25:32;36.08;;;17.58;;
60352;SDS011;46196;52.970;6.954;2023-10-09T05:28:18;40.97;;;18.55;;
60352;SDS011;46196;52.970;6.954;2023-10-09T05:30:56;38.85;;;17.00;;
60352;SDS011;46196;52.970;6.954;2023-10-09T05:33:34;34.78;;;17.00;;
60352;SDS011;46196;52.970;6.954;2023-10-09T05:36:02;39.10;;;18.25;;
60352;SDS011;46196;52.970;6.954;2023-10-09T05:38:48;36.03;;;16.35;;
60352;SDS011;46196;52.970;6.954;2023-10-09T05:41:26;35.25;;;16.65;;
60352;SDS011;46196;52.970;6.954;2023-10-09T05:44:31;35.03;;;16.90;;
60352;SDS011;46196;52.970;6.954;2023-10-09T05:47:16;32.47;;;16.17;;
60352;SDS011;46196;52.970;6.954;2023-10-09T05:49:54;34.00;;;17.30;;
60352;SDS011;46196;52.970;6.954;2023-10-09T05:52:22;33.60;;;16.92;;
60352;SDS011;46196;52.970;6.954;2023-10-09T05:55:20;32.72;;;15.82;;
60352;SDS011;46196;52.970;6.954;2023-10-09T05:57:56;33.97;;;16.75;;
60352;SDS011;46196;52.970;6.954;2023-10-09T06:00:54;37.38;;;15.43;;
60352;SDS011;46196;52.970;6.954;2023-10-09T06:03:38;29.27;;;14.13;;
60352;SDS011;46196;52.970;6.954;2023-10-09T06:06:23;34.70;;;16.08;;
60352;SDS011;46196;52.970;6.954;2023-10-09T06:09:21;32.28;;;14.63;;
60352;SDS011;46196;52.970;6.954;2023-10-09T06:11:47;31.45;;;15.88;;
60352;SDS011;46196;52.970;6.954;2023-10-09T06:14:18;34.67;;;14.07;;
60352;SDS011;46196;52.970;6.954;2023-10-09T06:16:51;32.13;;;15.70;;
60352;SDS011;46196;52.970;6.954;2023-10-09T06:19:53;29.92;;;15.45;;
60352;SDS011;46196;52.970;6.954;2023-10-09T06:22:24;29.85;;;15.52;;
60352;SDS011;46196;52.970;6.954;2023-10-09T06:25:08;30.88;;;16.58;;
60352;SDS011;46196;52.970;6.954;2023-10-09T06:27:34;29.80;;;14.18;;
60352;SDS011;46196;52.970;6.954;2023-10-09T06:30:00;29.05;;;15.13;;
60352;SDS011;46196;52.970;6.954;2023-10-09T06:32:40;29.77;;;14.85;;
60352;SDS011;46196;52.970;6.954;2023-10-09T06:35:21;30.02;;;14.27;;
60352;SDS011;46196;52.970;6.954;2023-10-09T06:37:48;24.08;;;12.75;;
60352;SDS011;46196;52.970;6.954;2023-10-09T06:43:04;22.67;;;10.95;;
60352;SDS011;46196;52.970;6.954;2023-10-09T06:45:52;23.63;;;11.18;;
60352;SDS011;46196;52.970;6.954;2023-10-09T06:48:37;22.75;;;11.68;;
60352;SDS011;46196;52.970;6.954;2023-10-09T06:51:04;22.70;;;10.23;;
60352;SDS011;46196;52.970;6.954;2023-10-09T06:53:39;24.33;;;11.35;;
60352;SDS011;46196;52.970;6.954;2023-10-09T06:56:24;20.15;;;11.35;;
60352;SDS011;46196;52.970;6.954;2023-10-09T06:58:54;16.75;;;9.27;;
60352;SDS011;46196;52.970;6.954;2023-10-09T07:01:46;21.90;;;10.18;;
60352;SDS011;46196;52.970;6.954;2023-10-09T07:04:34;22.83;;;11.20;;
60352;SDS011;46196;52.970;6.954;2023-10-09T07:07:00;20.27;;;9.73;;
60352;SDS011;46196;52.970;6.954;2023-10-09T07:09:27;19.95;;;10.65;;
60352;SDS011;46196;52.970;6.954;2023-10-09T07:12:09;23.90;;;10.45;;
60352;SDS011;46196;52.970;6.954;2023-10-09T07:14:38;15.60;;;8.77;;
60352;SDS011;46196;52.970;6.954;2023-10-09T07:17:08;19.08;;;9.52;;
60352;SDS011;46196;52.970;6.954;2023-10-09T07:19:53;17.92;;;9.48;;
60352;SDS011;46196;52.970;6.954;2023-10-09T07:22:19;21.05;;;9.00;;
60352;SDS011;46196;52.970;6.954;2023-10-09T07:24:51;17.75;;;8.75;;
60352;SDS011;46196;52.970;6.954;2023-10-09T07:27:39;17.42;;;7.97;;
60352;SDS011;46196;52.970;6.954;2023-10-09T07:30:08;14.80;;;7.07;;
60352;SDS011;46196;52.970;6.954;2023-10-09T07:32:54;17.20;;;8.60;;
60352;SDS011;46196;52.970;6.954;2023-10-09T07:35:20;16.42;;;6.32;;
60352;SDS011;46196;52.970;6.954;2023-10-09T07:38:07;19.77;;;9.00;;
60352;SDS011;46196;52.970;6.954;2023-10-09T07:41:01;18.50;;;7.72;;
60352;SDS011;46196;52.970;6.954;2023-10-09T07:43:28;15.80;;;8.77;;
60352;SDS011;46196;52.970;6.954;2023-10-09T07:46:03;16.40;;;8.60;;
60352;SDS011;46196;52.970;6.954;2023-10-09T07:48:29;19.95;;;8.50;;
60352;SDS011;46196;52.970;6.954;2023-10-09T07:51:14;16.55;;;7.57;;
60352;SDS011;46196;52.970;6.954;2023-10-09T07:53:41;15.32;;;7.88;;
60352;SDS011;46196;52.970;6.954;2023-10-09T07:56:10;15.93;;;7.90;;
60352;SDS011;46196;52.970;6.954;2023-10-09T07:58:46;14.57;;;8.15;;
60352;SDS011;46196;52.970;6.954;2023-10-09T08:01:12;16.60;;;8.40;;
60352;SDS011;46196;52.970;6.954;2023-10-09T08:03:47;14.15;;;7.95;;
60352;SDS011;46196;52.970;6.954;2023-10-09T08:06:23;20.48;;;8.18;;
60352;SDS011;46196;52.970;6.954;2023-10-09T08:09:11;12.95;;;8.00;;
60352;SDS011;46196;52.970;6.954;2023-10-09T08:14:09;12.35;;;7.18;;
60352;SDS011;46196;52.970;6.954;2023-10-09T08:16:47;15.13;;;7.13;;
60352;SDS011;46196;52.970;6.954;2023-10-09T08:19:14;16.45;;;7.75;;
60352;SDS011;46196;52.970;6.954;2023-10-09T08:21:57;15.23;;;7.25;;
60352;SDS011;46196;52.970;6.954;2023-10-09T08:25:02;17.73;;;7.55;;
60352;SDS011;46196;52.970;6.954;2023-10-09T08:27:28;14.65;;;7.13;;
60352;SDS011;46196;52.970;6.954;2023-10-09T08:30:01;10.65;;;5.90;;
60352;SDS011;46196;52.970;6.954;2023-10-09T08:32:37;12.98;;;7.00;;
60352;SDS011;46196;52.970;6.954;2023-10-09T08:35:06;17.77;;;7.38;;
60352;SDS011;46196;52.970;6.954;2023-10-09T08:37:52;12.77;;;7.20;;
60352;SDS011;46196;52.970;6.954;2023-10-09T08:40:21;15.55;;;7.60;;
60352;SDS011;46196;52.970;6.954;2023-10-09T08:43:09;16.08;;;7.00;;
60352;SDS011;46196;52.970;6.954;2023-10-09T08:45:45;17.75;;;7.82;;
60352;SDS011;46196;52.970;6.954;2023-10-09T08:48:18;16.13;;;7.05;;
60352;SDS011;46196;52.970;6.954;2023-10-09T08:50:47;12.45;;;6.93;;
60352;SDS011;46196;52.970;6.954;2023-10-09T08:53:19;15.40;;;7.30;;
60352;SDS011;46196;52.970;6.954;2023-10-09T08:55:45;13.07;;;7.75;;
60352;SDS011;46196;52.970;6.954;2023-10-09T08:58:11;11.43;;;6.70;;
60352;SDS011;46196;52.970;6.954;2023-10-09T09:00:58;17.50;;;6.55;;
60352;SDS011;46196;52.970;6.954;2023-10-09T09:03:27;18.08;;;7.63;;
60352;SDS011;46196;52.970;6.954;2023-10-09T09:06:08;18.35;;;7.72;;
60352;SDS011;46196;52.970;6.954;2023-10-09T09:08:34;15.60;;;6.95;;
60352;SDS011;46196;52.970;6.954;2023-10-09T09:11:04;19.50;;;7.15;;
60352;SDS011;46196;52.970;6.954;2023-10-09T09:13:38;10.65;;;5.68;;
60352;SDS011;46196;52.970;6.954;2023-10-09T09:16:27;13.43;;;6.70;;
60352;SDS011;46196;52.970;6.954;2023-10-09T09:18:56;15.18;;;6.47;;
60352;SDS011;46196;52.970;6.954;2023-10-09T09:21:42;11.32;;;6.55;;
60352;SDS011;46196;52.970;6.954;2023-10-09T09:24:17;14.52;;;7.00;;
60352;SDS011;46196;52.970;6.954;2023-10-09T09:26:46;13.20;;;6.90;;
60352;SDS011;46196;52.970;6.954;2023-10-09T09:29:12;14.23;;;7.35;;
60352;SDS011;46196;52.970;6.954;2023-10-09T09:31:51;21.17;;;7.28;;
60352;SDS011;46196;52.970;6.954;2023-10-09T09:34:22;11.10;;;6.38;;
60352;SDS011;46196;52.970;6.954;2023-10-09T09:36:54;13.85;;;6.75;;
60352;SDS011;46196;52.970;6.954;2023-10-09T09:39:22;13.25;;;6.78;;
60352;SDS011;46196;52.970;6.954;2023-10-09T09:41:57;15.55;;;6.60;;
60352;SDS011;46196;52.970;6.954;2023-10-09T09:44:32;8.00;;;4.53;;
60352;SDS011;46196;52.970;6.954;2023-10-09T09:47:08;15.50;;;6.82;;
60352;SDS011;46196;52.970;6.954;2023-10-09T09:49:37;11.40;;;5.78;;
60352;SDS011;46196;52.970;6.954;2023-10-09T09:52:06;11.77;;;5.80;;
60352;SDS011;46196;52.970;6.954;2023-10-09T09:54:37;10.48;;;5.78;;
60352;SDS011;46196;52.970;6.954;2023-10-09T09:57:03;11.90;;;5.57;;
60352;SDS011;46196;52.970;6.954;2023-10-09T09:59:42;11.07;;;6.05;;
60352;SDS011;46196;52.970;6.954;2023-10-09T10:02:17;12.77;;;6.05;;
60352;SDS011;46196;52.970;6.954;2023-10-09T10:04:47;8.75;;;5.53;;
60352;SDS011;46196;52.970;6.954;2023-10-09T10:07:19;11.90;;;6.07;;
60352;SDS011;46196;52.970;6.954;2023-10-09T10:09:47;7.72;;;5.03;;
60352;SDS011;46196;52.970;6.954;2023-10-09T10:12:49;9.90;;;5.03;;
60352;SDS011;46196;52.970;6.954;2023-10-09T10:16:12;8.57;;;5.72;;
60352;SDS011;46196;52.970;6.954;2023-10-09T10:18:29;11.68;;;7.35;;
60352;SDS011;46196;52.970;6.954;2023-10-09T10:21:09;14.18;;;6.45;;
60352;SDS011;46196;52.970;6.954;2023-10-09T10:23:41;15.23;;;6.82;;
60352;SDS011;46196;52.970;6.954;2023-10-09T10:26:18;12.95;;;6.60;;
60352;SDS011;46196;52.970;6.954;2023-10-09T10:32:00;10.73;;;6.65;;
60352;SDS011;46196;52.970;6.954;2023-10-09T10:40:23;10.00;;;6.43;;
60352;SDS011;46196;52.970;6.954;2023-10-09T10:43:06;11.90;;;7.30;;
60352;SDS011;46196;52.970;6.954;2023-10-09T10:45:38;14.93;;;7.05;;
60352;SDS011;46196;52.970;6.954;2023-10-09T10:48:11;14.07;;;6.70;;
60352;SDS011;46196;52.970;6.954;2023-10-09T10:51:03;13.43;;;6.45;;
60352;SDS011;46196;52.970;6.954;2023-10-09T10:53:30;11.40;;;6.45;;
60352;SDS011;46196;52.970;6.954;2023-10-09T10:56:13;12.68;;;6.80;;
60352;SDS011;46196;52.970;6.954;2023-10-09T10:58:39;10.60;;;5.68;;
60352;SDS011;46196;52.970;6.954;2023-10-09T11:01:24;10.85;;;6.20;;
60352;SDS011;46196;52.970;6.954;2023-10-09T11:04:17;15.25;;;6.32;;
60352;SDS011;46196;52.970;6.954;2023-10-09T11:06:52;13.55;;;6.68;;
60352;SDS011;46196;52.970;6.954;2023-10-09T11:09:25;14.15;;;5.72;;
60352;SDS011;46196;52.970;6.954;2023-10-09T11:12:04;13.20;;;6.32;;
60352;SDS011;46196;52.970;6.954;2023-10-09T11:14:47;10.35;;;5.78;;
60352;SDS011;46196;52.970;6.954;2023-10-09T11:17:34;13.70;;;5.88;;
60352;SDS011;46196;52.970;6.954;2023-10-09T11:20:03;10.65;;;4.30;;
60352;SDS011;46196;52.970;6.954;2023-10-09T11:22:50;13.18;;;5.60;;
60352;SDS011;46196;52.970;6.954;2023-10-09T11:25:35;10.27;;;5.13;;
60352;SDS011;46196;52.970;6.954;2023-10-09T11:28:18;11.82;;;6.32;;
60352;SDS011;46196;52.970;6.954;2023-10-09T11:31:17;12.18;;;7.13;;
60352;SDS011;46196;52.970;6.954;2023-10-09T11:33:46;12.52;;;6.47;;
60352;SDS011;46196;52.970;6.954;2023-10-09T11:36:19;11.85;;;5.85;;
60352;SDS011;46196;52.970;6.954;2023-10-09T11:38:57;14.05;;;5.95;;
60352;SDS011;46196;52.970;6.954;2023-10-09T11:41:39;12.48;;;5.57;;
60352;SDS011;46196;52.970;6.954;2023-10-09T11:44:09;13.25;;;5.63;;
60352;SDS011;46196;52.970;6.954;2023-10-09T11:49:55;14.15;;;6.50;;
60352;SDS011;46196;52.970;6.954;2023-10-09T11:52:31;10.80;;;6.00;;
60352;SDS011;46196;52.970;6.954;2023-10-09T11:55:04;17.73;;;6.45;;
60352;SDS011;46196;52.970;6.954;2023-10-09T11:57:40;14.10;;;6.10;;
60352;SDS011;46196;52.970;6.954;2023-10-09T12:00:06;12.27;;;5.85;;
60352;SDS011;46196;52.970;6.954;2023-10-09T12:02:55;17.07;;;5.83;;
60352;SDS011;46196;52.970;6.954;2023-10-09T12:05:21;12.63;;;5.93;;
60352;SDS011;46196;52.970;6.954;2023-10-09T12:07:48;12.88;;;6.35;;
60352;SDS011;46196;52.970;6.954;2023-10-09T12:10:20;15.35;;;5.97;;
60352;SDS011;46196;52.970;6.954;2023-10-09T12:12:53;14.40;;;6.63;;
60352;SDS011;46196;52.970;6.954;2023-10-09T12:15:23;12.63;;;5.60;;
60352;SDS011;46196;52.970;6.954;2023-10-09T12:17:49;13.38;;;6.55;;
60352;SDS011;46196;52.970;6.954;2023-10-09T12:20:18;11.05;;;5.68;;
60352;SDS011;46196;52.970;6.954;2023-10-09T12:23:01;12.75;;;7.22;;
60352;SDS011;46196;52.970;6.954;2023-10-09T12:25:34;11.25;;;5.57;;
60352;SDS011;46196;52.970;6.954;2023-10-09T12:28:00;18.75;;;6.47;;
60352;SDS011;46196;52.970;6.954;2023-10-09T12:30:30;13.13;;;6.85;;
60352;SDS011;46196;52.970;6.954;2023-10-09T12:32:57;12.07;;;6.10;;
60352;SDS011;46196;52.970;6.954;2023-10-09T12:35:23;9.90;;;5.05;;
60352;SDS011;46196;52.970;6.954;2023-10-09T12:37:51;9.52;;;4.45;;
60352;SDS011;46196;52.970;6.954;2023-10-09T12:40:22;8.50;;;3.67;;
60352;SDS011;46196;52.970;6.954;2023-10-09T12:42:56;11.73;;;4.80;;
60352;SDS011;46196;52.970;6.954;2023-10-09T12:45:24;11.90;;;4.95;;
60352;SDS011;46196;52.970;6.954;2023-10-09T12:47:54;9.68;;;4.30;;
60352;SDS011;46196;52.970;6.954;2023-10-09T12:50:34;10.38;;;3.83;;
60352;SDS011;46196;52.970;6.954;2023-10-09T12:53:06;10.32;;;4.35;;
60352;SDS011;46196;52.970;6.954;2023-10-09T12:55:36;8.23;;;4.30;;
60352;SDS011;46196;52.970;6.954;2023-10-09T12:58:05;9.48;;;4.15;;
60352;SDS011;46196;52.970;6.954;2023-10-09T13:00:38;9.02;;;3.78;;
60352;SDS011;46196;52.970;6.954;2023-10-09T13:03:09;11.90;;;3.97;;
60352;SDS011;46196;52.970;6.954;2023-10-09T13:05:46;7.63;;;3.80;;
60352;SDS011;46196;52.970;6.954;2023-10-09T13:08:24;6.40;;;3.92;;
60352;SDS011;46196;52.970;6.954;2023-10-09T13:10:56;8.90;;;4.10;;
60352;SDS011;46196;52.970;6.954;2023-10-09T13:16:16;4.68;;;2.65;;
60352;SDS011;46196;52.970;6.954;2023-10-09T13:18:57;10.07;;;3.70;;
60352;SDS011;46196;52.970;6.954;2023-10-09T13:21:31;6.95;;;3.65;;
60352;SDS011;46196;52.970;6.954;2023-10-09T13:23:59;9.93;;;3.40;;
60352;SDS011;46196;52.970;6.954;2023-10-09T13:26:28;12.52;;;3.72;;
60352;SDS011;46196;52.970;6.954;2023-10-09T13:28:55;13.98;;;4.07;;
60352;SDS011;46196;52.970;6.954;2023-10-09T13:31:24;9.70;;;3.55;;
60352;SDS011;46196;52.970;6.954;2023-10-09T13:33:57;5.57;;;2.90;;
60352;SDS011;46196;52.970;6.954;2023-10-09T13:36:24;8.30;;;2.90;;
60352;SDS011;46196;52.970;6.954;2023-10-09T13:38:57;7.20;;;3.30;;
60352;SDS011;46196;52.970;6.954;2023-10-09T13:41:27;4.95;;;2.80;;
60352;SDS011;46196;52.970;6.954;2023-10-09T13:43:54;7.60;;;3.40;;
60352;SDS011;46196;52.970;6.954;2023-10-09T13:46:22;11.40;;;3.55;;
60352;SDS011;46196;52.970;6.954;2023-10-09T13:48:49;10.45;;;3.25;;
60352;SDS011;46196;52.970;6.954;2023-10-09T13:51:17;8.30;;;3.53;;
60352;SDS011;46196;52.970;6.954;2023-10-09T13:53:48;8.05;;;3.30;;
60352;SDS011;46196;52.970;6.954;2023-10-09T13:56:15;9.10;;;3.47;;
60352;SDS011;46196;52.970;6.954;2023-10-09T14:01:19;6.68;;;2.85;;
60352;SDS011;46196;52.970;6.954;2023-10-09T14:03:57;6.80;;;2.72;;
60352;SDS011;46196;52.970;6.954;2023-10-09T14:06:24;8.82;;;3.22;;
60352;SDS011;46196;52.970;6.954;2023-10-09T14:08:58;6.53;;;3.40;;
60352;SDS011;46196;52.970;6.954;2023-10-09T14:11:33;7.13;;;2.47;;
60352;SDS011;46196;52.970;6.954;2023-10-09T14:14:03;8.23;;;3.15;;
60352;SDS011;46196;52.970;6.954;2023-10-09T14:16:34;5.80;;;2.72;;
60352;SDS011;46196;52.970;6.954;2023-10-09T14:19:00;5.78;;;3.00;;
60352;SDS011;46196;52.970;6.954;2023-10-09T14:21:32;6.15;;;3.05;;
60352;SDS011;46196;52.970;6.954;2023-10-09T14:23:58;5.85;;;3.50;;
60352;SDS011;46196;52.970;6.954;2023-10-09T14:26:27;4.40;;;2.88;;
60352;SDS011;46196;52.970;6.954;2023-10-09T14:28:54;4.55;;;2.80;;
60352;SDS011;46196;52.970;6.954;2023-10-09T14:31:22;7.63;;;2.83;;
60352;SDS011;46196;52.970;6.954;2023-10-09T14:33:53;6.22;;;3.10;;
60352;SDS011;46196;52.970;6.954;2023-10-09T14:36:20;6.03;;;2.88;;
60352;SDS011;46196;52.970;6.954;2023-10-09T14:38:51;5.38;;;3.35;;
60352;SDS011;46196;52.970;6.954;2023-10-09T14:41:18;6.13;;;2.95;;
60352;SDS011;46196;52.970;6.954;2023-10-09T14:43:47;5.63;;;2.90;;
60352;SDS011;46196;52.970;6.954;2023-10-09T14:46:13;5.15;;;3.00;;
60352;SDS011;46196;52.970;6.954;2023-10-09T14:48:39;7.75;;;3.20;;
60352;SDS011;46196;52.970;6.954;2023-10-09T14:51:11;5.45;;;3.10;;
60352;SDS011;46196;52.970;6.954;2023-10-09T14:53:38;8.75;;;3.00;;
60352;SDS011;46196;52.970;6.954;2023-10-09T14:56:05;5.47;;;3.28;;
60352;SDS011;46196;52.970;6.954;2023-10-09T14:58:34;10.25;;;4.13;;
60352;SDS011;46196;52.970;6.954;2023-10-09T15:01:10;5.45;;;3.10;;
60352;SDS011;46196;52.970;6.954;2023-10-09T15:03:37;7.78;;;3.72;;
60352;SDS011;46196;52.970;6.954;2023-10-09T15:06:04;5.15;;;2.92;;
60352;SDS011;46196;52.970;6.954;2023-10-09T15:08:36;5.47;;;3.35;;
60352;SDS011;46196;52.970;6.954;2023-10-09T15:11:01;6.32;;;3.10;;
60352;SDS011;46196;52.970;6.954;2023-10-09T15:13:27;5.93;;;3.15;;
60352;SDS011;46196;52.970;6.954;2023-10-09T15:15:54;5.97;;;3.00;;
60352;SDS011;46196;52.970;6.954;2023-10-09T15:18:20;6.07;;;3.05;;
60352;SDS011;46196;52.970;6.954;2023-10-09T15:20:50;4.85;;;2.70;;
60352;SDS011;46196;52.970;6.954;2023-10-09T15:23:17;6.57;;;3.00;;
60352;SDS011;46196;52.970;6.954;2023-10-09T15:25:45;8.73;;;3.13;;
60352;SDS011;46196;52.970;6.954;2023-10-09T15:28:14;4.88;;;2.97;;
60352;SDS011;46196;52.970;6.954;2023-10-09T15:30:41;6.88;;;2.90;;
60352;SDS011;46196;52.970;6.954;2023-10-09T15:33:07;7.93;;;3.78;;
60352;SDS011;46196;52.970;6.954;2023-10-09T15:35:36;9.63;;;3.40;;
60352;SDS011;46196;52.970;6.954;2023-10-09T15:38:02;8.80;;;3.15;;
60352;SDS011;46196;52.970;6.954;2023-10-09T15:40:32;6.70;;;3.13;;
60352;SDS011;46196;52.970;6.954;2023-10-09T15:43:00;6.07;;;3.28;;
60352;SDS011;46196;52.970;6.954;2023-10-09T15:45:26;6.35;;;3.60;;
60352;SDS011;46196;52.970;6.954;2023-10-09T15:47:55;6.68;;;3.60;;